sensor_id;sensor_type;location;lat;lon;timestamp;pressure;altitude;pressure_sealevel;temperature;humidity
30343;BME280;17145;49.902;8.680;'2023-06-14 01:58:26';99680;;;18;34
30343;BME280;17145;49.902;8.680;'2023-06-14 02:00:54';99680;;;18;34
30343;BME280;17145;49.902;8.680;'2023-06-14 02:03:21';99680;;;18;33
30343;BME280;17145;49.902;8.680;'2023-06-14 02:05:49';99680;;;18;34
30343;BME280;17145;49.902;8.680;'2023-06-14 02:08:16';99680;;;18;34
30343;BME280;17145;49.902;8.680;'2023-06-14 02:10:44';99680;;;18;34
30343;BME280;17145;49.902;8.680;'2023-06-14 02:13:12';99680;;;18;34
30343;BME280;17145;49.902;8.680;'2023-06-14 02:15:39';99680;;;18;33
30343;BME280;17145;49.902;8.680;'2023-06-14 02:18:06';99680;;;18;33
30343;BME280;17145;49.902;8.680;'2023-06-14 02:20:34';99680;;;18;34
30343;BME280;17145;49.902;8.680;'2023-06-14 02:23:02';99680;;;18;34
30343;BME280;17145;49.902;8.680;'2023-06-14 02:25:30';99680;;;18;33
30343;BME280;17145;49.902;8.680;'2023-06-14 02:27:58';99680;;;18;33
30343;BME280;17145;49.902;8.680;'2023-06-14 02:30:25';99680;;;18;33
30343;BME280;17145;49.902;8.680;'2023-06-14 02:32:53';99680;;;18;33
30343;BME280;17145;49.902;8.680;'2023-06-14 02:35:21';99680;;;18;33
30343;BME280;17145;49.902;8.680;'2023-06-14 02:37:49';99680;;;18;33
30343;BME280;17145;49.902;8.680;'2023-06-14 02:40:16';99680;;;18;32
30343;BME280;17145;49.902;8.680;'2023-06-14 02:42:44';99680;;;18;33
30343;BME280;17145;49.902;8.680;'2023-06-14 02:45:12';99680;;;18;33
30343;BME280;17145;49.902;8.680;'2023-06-14 02:47:42';99680;;;18;33
30343;BME280;17145;49.902;8.680;'2023-06-14 02:50:10';99680;;;18;33
30343;BME280;17145;49.902;8.680;'2023-06-14 02:52:37';99680;;;18;33
30343;BME280;17145;49.902;8.680;'2023-06-14 02:55:06';99680;;;18;33
30343;BME280;17145;49.902;8.680;'2023-06-14 02:57:34';99680;;;18;32
30343;BME280;17145;49.902;8.680;'2023-06-14 03:00:01';99680;;;18;32
30343;BME280;17145;49.902;8.680;'2023-06-14 03:02:29';99680;;;18;31
30343;BME280;17145;49.902;8.680;'2023-06-14 03:04:56';99680;;;18;32
30343;BME280;17145;49.902;8.680;'2023-06-14 03:07:35';99680;;;19;31
30343;BME280;17145;49.902;8.680;'2023-06-14 03:10:16';99680;;;18;31
30343;BME280;17145;49.902;8.680;'2023-06-14 03:12:50';99680;;;19;31
30343;BME280;17145;49.902;8.680;'2023-06-14 03:15:20';99670;;;19;31
30343;BME280;17145;49.902;8.680;'2023-06-14 03:17:50';99680;;;18;31
30343;BME280;17145;49.902;8.680;'2023-06-14 03:20:19';99680;;;19;31
30343;BME280;17145;49.902;8.680;'2023-06-14 03:22:51';99670;;;18;30
30343;BME280;17145;49.902;8.680;'2023-06-14 03:25:19';99680;;;19;30
30343;BME280;17145;49.902;8.680;'2023-06-14 03:27:49';99670;;;19;30
30343;BME280;17145;49.902;8.680;'2023-06-14 03:30:19';99680;;;19;30
30343;BME280;17145;49.902;8.680;'2023-06-14 03:32:48';99670;;;19;30
30343;BME280;17145;49.902;8.680;'2023-06-14 03:35:16';99670;;;19;30
30343;BME280;17145;49.902;8.680;'2023-06-14 03:37:46';99680;;;19;30
30343;BME280;17145;49.902;8.680;'2023-06-14 03:40:16';99680;;;18;30
30343;BME280;17145;49.902;8.680;'2023-06-14 03:42:46';99670;;;18;30
30343;BME280;17145;49.902;8.680;'2023-06-14 03:45:15';99680;;;18;30
30343;BME280;17145;49.902;8.680;'2023-06-14 03:47:44';99680;;;18;30
30343;BME280;17145;49.902;8.680;'2023-06-14 03:50:13';99680;;;18;30
30343;BME280;17145;49.902;8.680;'2023-06-14 03:52:40';99680;;;18;30
30343;BME280;17145;49.902;8.680;'2023-06-14 03:55:08';99680;;;19;30
30343;BME280;17145;49.902;8.680;'2023-06-14 03:57:35';99680;;;19;30
30343;BME280;17145;49.902;8.680;'2023-06-14 04:00:04';99680;;;19;30
30343;BME280;17145;49.902;8.680;'2023-06-14 04:02:31';99680;;;18;30
30343;BME280;17145;49.902;8.680;'2023-06-14 04:04:59';99680;;;18;30
30343;BME280;17145;49.902;8.680;'2023-06-14 04:07:26';99680;;;18;30
30343;BME280;17145;49.902;8.680;'2023-06-14 04:09:54';99680;;;18;30
30343;BME280;17145;49.902;8.680;'2023-06-14 04:12:21';99680;;;18;30
30343;BME280;17145;49.902;8.680;'2023-06-14 04:14:48';99680;;;18;30
30343;BME280;17145;49.902;8.680;'2023-06-14 04:17:16';99690;;;18;30
30343;BME280;17145;49.902;8.680;'2023-06-14 04:19:43';99690;;;19;31
30343;BME280;17145;49.902;8.680;'2023-06-14 04:22:11';99690;;;19;31
30343;BME280;17145;49.902;8.680;'2023-06-14 04:24:38';99700;;;18;31
30343;BME280;17145;49.902;8.680;'2023-06-14 04:27:06';99700;;;18;31
30343;BME280;17145;49.902;8.680;'2023-06-14 04:29:34';99700;;;18;31
30343;BME280;17145;49.902;8.680;'2023-06-14 04:32:01';99700;;;18;31
30343;BME280;17145;49.902;8.680;'2023-06-14 04:34:28';99700;;;18;32
30343;BME280;17145;49.902;8.680;'2023-06-14 04:36:56';99700;;;18;32
30343;BME280;17145;49.902;8.680;'2023-06-14 04:39:24';99700;;;18;32
30343;BME280;17145;49.902;8.680;'2023-06-14 04:41:51';99700;;;18;33
30343;BME280;17145;49.902;8.680;'2023-06-14 04:44:19';99700;;;18;33
30343;BME280;17145;49.902;8.680;'2023-06-14 04:46:46';99700;;;18;33
30343;BME280;17145;49.902;8.680;'2023-06-14 04:49:14';99700;;;17;34
30343;BME280;17145;49.902;8.680;'2023-06-14 04:51:41';99700;;;17;34
30343;BME280;17145;49.902;8.680;'2023-06-14 04:54:08';99700;;;17;34
30343;BME280;17145;49.902;8.680;'2023-06-14 04:56:36';99710;;;17;34
30343;BME280;17145;49.902;8.680;'2023-06-14 04:59:03';99710;;;17;34
30343;BME280;17145;49.902;8.680;'2023-06-14 05:01:31';99710;;;17;34
30343;BME280;17145;49.902;8.680;'2023-06-14 05:03:58';99710;;;17;34
30343;BME280;17145;49.902;8.680;'2023-06-14 05:06:25';99710;;;17;33
30343;BME280;17145;49.902;8.680;'2023-06-14 05:08:53';99710;;;17;33
30343;BME280;17145;49.902;8.680;'2023-06-14 05:11:20';99720;;;17;33
30343;BME280;17145;49.902;8.680;'2023-06-14 05:13:47';99720;;;17;33
30343;BME280;17145;49.902;8.680;'2023-06-14 05:16:15';99720;;;17;33
30343;BME280;17145;49.902;8.680;'2023-06-14 05:18:42';99730;;;17;33
30343;BME280;17145;49.902;8.680;'2023-06-14 05:21:09';99730;;;18;33
30343;BME280;17145;49.902;8.680;'2023-06-14 05:23:37';99730;;;17;33
30343;BME280;17145;49.902;8.680;'2023-06-14 05:26:04';99730;;;17;33
30343;BME280;17145;49.902;8.680;'2023-06-14 05:28:32';99730;;;17;33
30343;BME280;17145;49.902;8.680;'2023-06-14 05:30:59';99730;;;18;33
30343;BME280;17145;49.902;8.680;'2023-06-14 05:33:26';99740;;;17;33
30343;BME280;17145;49.902;8.680;'2023-06-14 05:35:54';99740;;;17;33
30343;BME280;17145;49.902;8.680;'2023-06-14 05:38:21';99740;;;17;33
30343;BME280;17145;49.902;8.680;'2023-06-14 05:40:49';99750;;;17;33
30343;BME280;17145;49.902;8.680;'2023-06-14 05:43:16';99750;;;17;33
30343;BME280;17145;49.902;8.680;'2023-06-14 05:45:44';99750;;;17;33
30343;BME280;17145;49.902;8.680;'2023-06-14 05:48:11';99760;;;17;33
30343;BME280;17145;49.902;8.680;'2023-06-14 05:50:39';99760;;;17;34
30343;BME280;17145;49.902;8.680;'2023-06-14 05:53:06';99760;;;17;34
30343;BME280;17145;49.902;8.680;'2023-06-14 05:55:34';99770;;;17;33
30343;BME280;17145;49.902;8.680;'2023-06-14 05:58:02';99770;;;17;33
30343;BME280;17145;49.902;8.680;'2023-06-14 06:00:29';99770;;;17;34
30343;BME280;17145;49.902;8.680;'2023-06-14 06:02:56';99780;;;17;34
30343;BME280;17145;49.902;8.680;'2023-06-14 06:05:24';99780;;;17;34
30343;BME280;17145;49.902;8.680;'2023-06-14 06:07:52';99780;;;17;34
30343;BME280;17145;49.902;8.680;'2023-06-14 06:10:19';99780;;;17;34
30343;BME280;17145;49.902;8.680;'2023-06-14 06:12:46';99780;;;17;33
30343;BME280;17145;49.902;8.680;'2023-06-14 06:15:14';99780;;;17;34
30343;BME280;17145;49.902;8.680;'2023-06-14 06:17:41';99780;;;17;34
30343;BME280;17145;49.902;8.680;'2023-06-14 06:20:09';99780;;;17;34
30343;BME280;17145;49.902;8.680;'2023-06-14 06:22:36';99790;;;17;34
30343;BME280;17145;49.902;8.680;'2023-06-14 06:25:04';99790;;;17;34
30343;BME280;17145;49.902;8.680;'2023-06-14 06:27:32';99790;;;17;34
30343;BME280;17145;49.902;8.680;'2023-06-14 06:29:59';99790;;;17;34
30343;BME280;17145;49.902;8.680;'2023-06-14 06:32:26';99790;;;17;34
30343;BME280;17145;49.902;8.680;'2023-06-14 06:34:54';99790;;;17;34
30343;BME280;17145;49.902;8.680;'2023-06-14 06:37:21';99790;;;17;34
30343;BME280;17145;49.902;8.680;'2023-06-14 06:39:49';99790;;;17;34
30343;BME280;17145;49.902;8.680;'2023-06-14 06:42:17';99790;;;17;34
30343;BME280;17145;49.902;8.680;'2023-06-14 06:44:44';99790;;;17;34
30343;BME280;17145;49.902;8.680;'2023-06-14 06:47:12';99790;;;17;34
30343;BME280;17145;49.902;8.680;'2023-06-14 06:49:40';99800;;;17;34
30343;BME280;17145;49.902;8.680;'2023-06-14 06:52:07';99800;;;17;34
30343;BME280;17145;49.902;8.680;'2023-06-14 06:54:35';99800;;;17;34
30343;BME280;17145;49.902;8.680;'2023-06-14 06:57:04';99800;;;17;34
30343;BME280;17145;49.902;8.680;'2023-06-14 06:59:31';99800;;;17;34
30343;BME280;17145;49.902;8.680;'2023-06-14 07:01:59';99800;;;17;34
30343;BME280;17145;49.902;8.680;'2023-06-14 07:04:26';99810;;;18;34
30343;BME280;17145;49.902;8.680;'2023-06-14 07:06:54';99810;;;18;34
30343;BME280;17145;49.902;8.680;'2023-06-14 07:09:21';99810;;;18;34
30343;BME280;17145;49.902;8.680;'2023-06-14 07:11:49';99810;;;18;34
30343;BME280;17145;49.902;8.680;'2023-06-14 07:14:17';99810;;;18;34
30343;BME280;17145;49.902;8.680;'2023-06-14 07:16:44';99810;;;18;34
30343;BME280;17145;49.902;8.680;'2023-06-14 07:19:12';99810;;;18;34
30343;BME280;17145;49.902;8.680;'2023-06-14 07:21:39';99820;;;18;34
30343;BME280;17145;49.902;8.680;'2023-06-14 07:24:07';99820;;;18;34
30343;BME280;17145;49.902;8.680;'2023-06-14 07:26:34';99820;;;18;34
30343;BME280;17145;49.902;8.680;'2023-06-14 07:29:02';99820;;;18;34
30343;BME280;17145;49.902;8.680;'2023-06-14 07:31:29';99820;;;18;34
30343;BME280;17145;49.902;8.680;'2023-06-14 07:33:57';99830;;;18;34
30343;BME280;17145;49.902;8.680;'2023-06-14 07:36:25';99830;;;18;34
30343;BME280;17145;49.902;8.680;'2023-06-14 07:38:52';99830;;;18;34
30343;BME280;17145;49.902;8.680;'2023-06-14 07:41:19';99840;;;18;34
30343;BME280;17145;49.902;8.680;'2023-06-14 07:43:47';99840;;;18;34
30343;BME280;17145;49.902;8.680;'2023-06-14 07:46:14';99840;;;18;34
30343;BME280;17145;49.902;8.680;'2023-06-14 07:48:41';99840;;;18;34
30343;BME280;17145;49.902;8.680;'2023-06-14 07:51:09';99850;;;18;34
30343;BME280;17145;49.902;8.680;'2023-06-14 07:53:36';99850;;;18;34
30343;BME280;17145;49.902;8.680;'2023-06-14 07:56:04';99860;;;18;34
30343;BME280;17145;49.902;8.680;'2023-06-14 07:58:31';99860;;;18;34
30343;BME280;17145;49.902;8.680;'2023-06-14 08:00:58';99860;;;18;34
30343;BME280;17145;49.902;8.680;'2023-06-14 08:03:26';99860;;;18;34
30343;BME280;17145;49.902;8.680;'2023-06-14 08:05:53';99860;;;18;34
30343;BME280;17145;49.902;8.680;'2023-06-14 08:08:20';99870;;;18;34
30343;BME280;17145;49.902;8.680;'2023-06-14 08:10:48';99870;;;18;34
30343;BME280;17145;49.902;8.680;'2023-06-14 08:13:15';99870;;;19;34
30343;BME280;17145;49.902;8.680;'2023-06-14 08:15:43';99870;;;19;34
30343;BME280;17145;49.902;8.680;'2023-06-14 08:18:10';99870;;;19;34
30343;BME280;17145;49.902;8.680;'2023-06-14 08:20:37';99870;;;19;34
30343;BME280;17145;49.902;8.680;'2023-06-14 08:23:04';99870;;;19;34
30343;BME280;17145;49.902;8.680;'2023-06-14 08:25:32';99870;;;19;34
30343;BME280;17145;49.902;8.680;'2023-06-14 08:27:59';99870;;;19;33
30343;BME280;17145;49.902;8.680;'2023-06-14 08:30:27';99880;;;19;33
30343;BME280;17145;49.902;8.680;'2023-06-14 08:32:54';99880;;;19;34
30343;BME280;17145;49.902;8.680;'2023-06-14 08:35:21';99880;;;19;34
30343;BME280;17145;49.902;8.680;'2023-06-14 08:37:49';99880;;;19;34
30343;BME280;17145;49.902;8.680;'2023-06-14 08:40:16';99880;;;19;33
30343;BME280;17145;49.902;8.680;'2023-06-14 08:42:43';99890;;;19;34
30343;BME280;17145;49.902;8.680;'2023-06-14 08:45:11';99880;;;19;34
30343;BME280;17145;49.902;8.680;'2023-06-14 08:47:38';99880;;;19;33
30343;BME280;17145;49.902;8.680;'2023-06-14 08:50:07';99880;;;20;33
30343;BME280;17145;49.902;8.680;'2023-06-14 08:52:34';99880;;;20;33
30343;BME280;17145;49.902;8.680;'2023-06-14 08:55:02';99890;;;20;32
30343;BME280;17145;49.902;8.680;'2023-06-14 08:57:30';99890;;;19;33
30343;BME280;17145;49.902;8.680;'2023-06-14 08:59:57';99890;;;19;33
30343;BME280;17145;49.902;8.680;'2023-06-14 09:02:24';99890;;;19;33
30343;BME280;17145;49.902;8.680;'2023-06-14 09:04:52';99890;;;20;32
30343;BME280;17145;49.902;8.680;'2023-06-14 09:07:21';99890;;;19;33
30343;BME280;17145;49.902;8.680;'2023-06-14 09:09:48';99890;;;20;33
30343;BME280;17145;49.902;8.680;'2023-06-14 09:12:16';99890;;;20;33
30343;BME280;17145;49.902;8.680;'2023-06-14 09:14:44';99890;;;20;32
30343;BME280;17145;49.902;8.680;'2023-06-14 09:17:11';99890;;;20;33
30343;BME280;17145;49.902;8.680;'2023-06-14 09:19:39';99890;;;20;32
30343;BME280;17145;49.902;8.680;'2023-06-14 09:22:06';99890;;;20;32
30343;BME280;17145;49.902;8.680;'2023-06-14 09:24:34';99890;;;20;32
30343;BME280;17145;49.902;8.680;'2023-06-14 09:27:01';99900;;;20;32
30343;BME280;17145;49.902;8.680;'2023-06-14 09:29:29';99890;;;20;32
30343;BME280;17145;49.902;8.680;'2023-06-14 09:31:56';99890;;;20;32
30343;BME280;17145;49.902;8.680;'2023-06-14 09:34:23';99890;;;20;32
30343;BME280;17145;49.902;8.680;'2023-06-14 09:36:51';99890;;;20;32
30343;BME280;17145;49.902;8.680;'2023-06-14 09:39:19';99890;;;20;32
30343;BME280;17145;49.902;8.680;'2023-06-14 09:41:46';99890;;;20;32
30343;BME280;17145;49.902;8.680;'2023-06-14 09:44:23';99890;;;20;32
30343;BME280;17145;49.902;8.680;'2023-06-14 09:46:50';99890;;;20;32
30343;BME280;17145;49.902;8.680;'2023-06-14 09:49:18';99890;;;20;33
30343;BME280;17145;49.902;8.680;'2023-06-14 09:51:45';99890;;;20;32
30343;BME280;17145;49.902;8.680;'2023-06-14 09:54:12';99900;;;20;32
30343;BME280;17145;49.902;8.680;'2023-06-14 09:56:40';99900;;;20;31
30343;BME280;17145;49.902;8.680;'2023-06-14 09:59:07';99900;;;20;31
30343;BME280;17145;49.902;8.680;'2023-06-14 10:01:35';99900;;;20;31
30343;BME280;17145;49.902;8.680;'2023-06-14 10:04:02';99900;;;20;31
30343;BME280;17145;49.902;8.680;'2023-06-14 10:06:30';99900;;;21;31
30343;BME280;17145;49.902;8.680;'2023-06-14 10:08:57';99900;;;20;31
30343;BME280;17145;49.902;8.680;'2023-06-14 10:11:24';99900;;;21;30
30343;BME280;17145;49.902;8.680;'2023-06-14 10:13:52';99900;;;21;31
30343;BME280;17145;49.902;8.680;'2023-06-14 10:16:19';99900;;;21;31
30343;BME280;17145;49.902;8.680;'2023-06-14 10:18:47';99900;;;20;30
30343;BME280;17145;49.902;8.680;'2023-06-14 10:21:14';99900;;;20;31
30343;BME280;17145;49.902;8.680;'2023-06-14 10:23:42';99900;;;21;31
30343;BME280;17145;49.902;8.680;'2023-06-14 10:26:09';99900;;;21;30
30343;BME280;17145;49.902;8.680;'2023-06-14 10:28:37';99900;;;21;31
30343;BME280;17145;49.902;8.680;'2023-06-14 10:31:04';99890;;;21;31
30343;BME280;17145;49.902;8.680;'2023-06-14 10:33:31';99890;;;22;30
30343;BME280;17145;49.902;8.680;'2023-06-14 10:35:59';99890;;;21;29
30343;BME280;17145;49.902;8.680;'2023-06-14 10:38:26';99890;;;21;29
30343;BME280;17145;49.902;8.680;'2023-06-14 10:40:57';99900;;;21;29
30343;BME280;17145;49.902;8.680;'2023-06-14 10:43:25';99900;;;21;30
30343;BME280;17145;49.902;8.680;'2023-06-14 10:45:58';99890;;;21;30
30343;BME280;17145;49.902;8.680;'2023-06-14 10:48:26';99900;;;21;29
30343;BME280;17145;49.902;8.680;'2023-06-14 10:50:55';99900;;;22;29
30343;BME280;17145;49.902;8.680;'2023-06-14 10:53:23';99900;;;22;29
30343;BME280;17145;49.902;8.680;'2023-06-14 10:55:50';99900;;;22;29
30343;BME280;17145;49.902;8.680;'2023-06-14 10:58:18';99900;;;22;29
30343;BME280;17145;49.902;8.680;'2023-06-14 11:00:46';99900;;;22;28
30343;BME280;17145;49.902;8.680;'2023-06-14 11:03:13';99890;;;22;27
30343;BME280;17145;49.902;8.680;'2023-06-14 11:05:40';99900;;;22;28
30343;BME280;17145;49.902;8.680;'2023-06-14 11:08:08';99900;;;23;27
30343;BME280;17145;49.902;8.680;'2023-06-14 11:10:35';99900;;;22;27
30343;BME280;17145;49.902;8.680;'2023-06-14 11:13:03';99900;;;22;27
30343;BME280;17145;49.902;8.680;'2023-06-14 11:15:31';99900;;;23;27
30343;BME280;17145;49.902;8.680;'2023-06-14 11:18:00';99900;;;22;27
30343;BME280;17145;49.902;8.680;'2023-06-14 11:20:29';99900;;;23;27
30343;BME280;17145;49.902;8.680;'2023-06-14 11:22:57';99900;;;23;26
30343;BME280;17145;49.902;8.680;'2023-06-14 11:25:25';99910;;;23;27
30343;BME280;17145;49.902;8.680;'2023-06-14 11:27:52';99910;;;23;28
30343;BME280;17145;49.902;8.680;'2023-06-14 11:30:20';99920;;;23;28
30343;BME280;17145;49.902;8.680;'2023-06-14 11:32:49';99920;;;23;28
30343;BME280;17145;49.902;8.680;'2023-06-14 11:35:18';99920;;;23;27
30343;BME280;17145;49.902;8.680;'2023-06-14 11:37:45';99920;;;23;26
30343;BME280;17145;49.902;8.680;'2023-06-14 11:40:12';99920;;;23;27
30343;BME280;17145;49.902;8.680;'2023-06-14 11:42:40';99920;;;23;27
30343;BME280;17145;49.902;8.680;'2023-06-14 11:45:09';99920;;;24;27
30343;BME280;17145;49.902;8.680;'2023-06-14 11:47:38';99930;;;24;26
30343;BME280;17145;49.902;8.680;'2023-06-14 11:50:07';99920;;;24;26
30343;BME280;17145;49.902;8.680;'2023-06-14 11:52:35';99920;;;24;26
30343;BME280;17145;49.902;8.680;'2023-06-14 11:55:08';99910;;;24;26
30343;BME280;17145;49.902;8.680;'2023-06-14 11:57:38';99910;;;24;27
30343;BME280;17145;49.902;8.680;'2023-06-14 12:00:09';99910;;;24;26
30343;BME280;17145;49.902;8.680;'2023-06-14 12:02:38';99910;;;24;26
30343;BME280;17145;49.902;8.680;'2023-06-14 12:05:07';99910;;;24;26
30343;BME280;17145;49.902;8.680;'2023-06-14 12:07:42';99920;;;24;25
30343;BME280;17145;49.902;8.680;'2023-06-14 12:10:10';99910;;;24;25
30343;BME280;17145;49.902;8.680;'2023-06-14 12:12:38';99910;;;24;26
30343;BME280;17145;49.902;8.680;'2023-06-14 12:15:13';99910;;;24;26
30343;BME280;17145;49.902;8.680;'2023-06-14 12:17:46';99910;;;24;26
30343;BME280;17145;49.902;8.680;'2023-06-14 12:20:26';99910;;;23;26
30343;BME280;17145;49.902;8.680;'2023-06-14 12:23:00';99910;;;23;26
30343;BME280;17145;49.902;8.680;'2023-06-14 12:25:28';99910;;;23;26
30343;BME280;17145;49.902;8.680;'2023-06-14 12:28:03';99910;;;24;25
30343;BME280;17145;49.902;8.680;'2023-06-14 12:30:31';99900;;;24;26
30343;BME280;17145;49.902;8.680;'2023-06-14 12:33:04';99910;;;24;26
30343;BME280;17145;49.902;8.680;'2023-06-14 12:35:32';99910;;;24;27
30343;BME280;17145;49.902;8.680;'2023-06-14 12:38:07';99910;;;25;25
30343;BME280;17145;49.902;8.680;'2023-06-14 12:45:59';99900;;;25;25
30343;BME280;17145;49.902;8.680;'2023-06-14 12:48:29';99900;;;25;25
30343;BME280;17145;49.902;8.680;'2023-06-14 12:51:00';99900;;;26;23
30343;BME280;17145;49.902;8.680;'2023-06-14 12:53:28';99900;;;26;24
30343;BME280;17145;49.902;8.680;'2023-06-14 12:56:01';99900;;;26;23
30343;BME280;17145;49.902;8.680;'2023-06-14 12:58:29';99900;;;26;23
30343;BME280;17145;49.902;8.680;'2023-06-14 13:03:38';99900;;;26;23
30343;BME280;17145;49.902;8.680;'2023-06-14 13:09:01';99910;;;25;23
30343;BME280;17145;49.902;8.680;'2023-06-14 13:11:32';99900;;;25;23
30343;BME280;17145;49.902;8.680;'2023-06-14 13:14:00';99910;;;25;23
30343;BME280;17145;49.902;8.680;'2023-06-14 13:16:28';99900;;;26;22
30343;BME280;17145;49.902;8.680;'2023-06-14 13:18:55';99900;;;26;23
30343;BME280;17145;49.902;8.680;'2023-06-14 13:21:24';99900;;;27;24
30343;BME280;17145;49.902;8.680;'2023-06-14 13:23:52';99910;;;27;22
30343;BME280;17145;49.902;8.680;'2023-06-14 13:26:25';99910;;;27;22
30343;BME280;17145;49.902;8.680;'2023-06-14 13:28:56';99910;;;27;21
30343;BME280;17145;49.902;8.680;'2023-06-14 13:31:24';99910;;;26;21
30343;BME280;17145;49.902;8.680;'2023-06-14 13:33:53';99910;;;26;22
30343;BME280;17145;49.902;8.680;'2023-06-14 13:36:21';99910;;;26;22
30343;BME280;17145;49.902;8.680;'2023-06-14 13:38:48';99910;;;26;22
30343;BME280;17145;49.902;8.680;'2023-06-14 13:41:16';99910;;;26;23
30343;BME280;17145;49.902;8.680;'2023-06-14 13:43:43';99900;;;26;23
30343;BME280;17145;49.902;8.680;'2023-06-14 13:46:14';99910;;;26;22
30343;BME280;17145;49.902;8.680;'2023-06-14 13:48:43';99910;;;26;22
30343;BME280;17145;49.902;8.680;'2023-06-14 13:51:11';99910;;;26;22
30343;BME280;17145;49.902;8.680;'2023-06-14 13:53:39';99910;;;26;22
30343;BME280;17145;49.902;8.680;'2023-06-14 13:56:07';99910;;;26;23
30343;BME280;17145;49.902;8.680;'2023-06-14 13:58:35';99910;;;25;23
30343;BME280;17145;49.902;8.680;'2023-06-14 14:01:03';99910;;;25;23
30343;BME280;17145;49.902;8.680;'2023-06-14 14:03:31';99900;;;25;24
30343;BME280;17145;49.902;8.680;'2023-06-14 14:06:05';99900;;;26;23
30343;BME280;17145;49.902;8.680;'2023-06-14 14:08:34';99900;;;26;23
30343;BME280;17145;49.902;8.680;'2023-06-14 14:11:03';99910;;;26;23
30343;BME280;17145;49.902;8.680;'2023-06-14 14:13:30';99910;;;26;23
30343;BME280;17145;49.902;8.680;'2023-06-14 14:15:58';99910;;;26;23
30343;BME280;17145;49.902;8.680;'2023-06-14 14:18:31';99910;;;26;22
30343;BME280;17145;49.902;8.680;'2023-06-14 14:20:59';99900;;;26;22
30343;BME280;17145;49.902;8.680;'2023-06-14 14:23:27';99910;;;26;23
30343;BME280;17145;49.902;8.680;'2023-06-14 14:25:59';99910;;;26;22
30343;BME280;17145;49.902;8.680;'2023-06-14 14:28:31';99910;;;26;23
30343;BME280;17145;49.902;8.680;'2023-06-14 14:30:59';99920;;;26;23
30343;BME280;17145;49.902;8.680;'2023-06-14 14:33:26';99910;;;26;23
30343;BME280;17145;49.902;8.680;'2023-06-14 14:35:55';99910;;;25;23
30343;BME280;17145;49.902;8.680;'2023-06-14 14:38:24';99910;;;26;24
30343;BME280;17145;49.902;8.680;'2023-06-14 14:40:51';99900;;;26;23
30343;BME280;17145;49.902;8.680;'2023-06-14 14:43:19';99900;;;27;21
30343;BME280;17145;49.902;8.680;'2023-06-14 14:45:46';99900;;;27;21
30343;BME280;17145;49.902;8.680;'2023-06-14 14:48:14';99900;;;27;21
30343;BME280;17145;49.902;8.680;'2023-06-14 14:50:41';99900;;;26;22
30343;BME280;17145;49.902;8.680;'2023-06-14 14:53:08';99910;;;26;22
30343;BME280;17145;49.902;8.680;'2023-06-14 14:55:36';99900;;;26;22
30343;BME280;17145;49.902;8.680;'2023-06-14 14:58:03';99900;;;26;22
30343;BME280;17145;49.902;8.680;'2023-06-14 15:00:31';99900;;;26;23
30343;BME280;17145;49.902;8.680;'2023-06-14 15:02:59';99910;;;26;23
30343;BME280;17145;49.902;8.680;'2023-06-14 15:05:26';99910;;;26;22
30343;BME280;17145;49.902;8.680;'2023-06-14 15:07:53';99900;;;26;21
30343;BME280;17145;49.902;8.680;'2023-06-14 15:10:21';99910;;;26;21
30343;BME280;17145;49.902;8.680;'2023-06-14 15:12:48';99900;;;26;20
30343;BME280;17145;49.902;8.680;'2023-06-14 15:15:16';99910;;;27;22
30343;BME280;17145;49.902;8.680;'2023-06-14 15:17:43';99910;;;27;21
30343;BME280;17145;49.902;8.680;'2023-06-14 15:20:11';99910;;;27;21
30343;BME280;17145;49.902;8.680;'2023-06-14 15:22:38';99910;;;27;21
30343;BME280;17145;49.902;8.680;'2023-06-14 15:25:06';99910;;;27;21
30343;BME280;17145;49.902;8.680;'2023-06-14 15:27:34';99910;;;27;21
30343;BME280;17145;49.902;8.680;'2023-06-14 15:30:01';99900;;;27;20
30343;BME280;17145;49.902;8.680;'2023-06-14 15:32:29';99900;;;28;19
30343;BME280;17145;49.902;8.680;'2023-06-14 15:34:56';99900;;;28;19
30343;BME280;17145;49.902;8.680;'2023-06-14 15:37:23';99890;;;28;19
30343;BME280;17145;49.902;8.680;'2023-06-14 15:39:51';99900;;;27;19
30343;BME280;17145;49.902;8.680;'2023-06-14 15:42:18';99890;;;28;19
30343;BME280;17145;49.902;8.680;'2023-06-14 15:44:46';99890;;;27;20
30343;BME280;17145;49.902;8.680;'2023-06-14 15:47:13';99900;;;27;20
30343;BME280;17145;49.902;8.680;'2023-06-14 15:49:40';99900;;;27;21
30343;BME280;17145;49.902;8.680;'2023-06-14 15:52:08';99900;;;27;21
30343;BME280;17145;49.902;8.680;'2023-06-14 15:54:35';99900;;;27;22
30343;BME280;17145;49.902;8.680;'2023-06-14 15:57:03';99900;;;26;22
30343;BME280;17145;49.902;8.680;'2023-06-14 15:59:30';99890;;;27;21
30343;BME280;17145;49.902;8.680;'2023-06-14 16:01:57';99890;;;27;21
30343;BME280;17145;49.902;8.680;'2023-06-14 16:04:25';99880;;;28;21
30343;BME280;17145;49.902;8.680;'2023-06-14 16:06:52';99880;;;28;19
30343;BME280;17145;49.902;8.680;'2023-06-14 16:09:20';99880;;;29;19
30343;BME280;17145;49.902;8.680;'2023-06-14 16:11:48';99870;;;29;19
30343;BME280;17145;49.902;8.680;'2023-06-14 16:14:15';99870;;;29;18
30343;BME280;17145;49.902;8.680;'2023-06-14 16:16:42';99870;;;30;18
30343;BME280;17145;49.902;8.680;'2023-06-14 16:19:10';99870;;;30;18
30343;BME280;17145;49.902;8.680;'2023-06-14 16:21:37';99870;;;29;18
30343;BME280;17145;49.902;8.680;'2023-06-14 16:24:05';99880;;;29;19
30343;BME280;17145;49.902;8.680;'2023-06-14 16:26:33';99870;;;29;18
30343;BME280;17145;49.902;8.680;'2023-06-14 16:29:00';99870;;;29;19
30343;BME280;17145;49.902;8.680;'2023-06-14 16:31:29';99870;;;28;19
30343;BME280;17145;49.902;8.680;'2023-06-14 16:33:56';99880;;;28;19